Time;durP1;ratioP1;P1;durP2;ratioP2;P2;SDS_P1;SDS_P2;PMS_P1;PMS_P2;Temp;Humidity;BMP_temperature;BMP_pressure;BME280_temperature;BME280_humidity;BME280_pressure;Samples;Min_cycle;Max_cycle;Signal;HPM_P1;HPM_P2
2022/09/10 00:00:39;;;;;;;6.85;6.15;;;22.50;99.90;;;;;;6278319;27;88997;-66
2022/09/10 00:03:43;;;;;;;6.90;6.20;;;22.50;99.90;;;;;;6279448;27;89092;-65
2022/09/10 00:06:45;;;;;;;7.40;6.10;;;22.50;99.90;;;;;;6266162;27;88934;-64
2022/09/10 00:09:47;;;;;;;7.25;5.95;;;22.50;99.90;;;;;;6256576;27;89094;-65
2022/09/10 00:12:50;;;;;;;6.65;5.97;;;22.50;99.90;;;;;;6271606;27;88942;-65
2022/09/10 00:15:53;;;;;;;6.85;6.15;;;22.50;99.90;;;;;;6271300;27;89453;-65
2022/09/10 00:18:57;;;;;;;6.85;6.15;;;22.50;99.90;;;;;;6274879;27;89104;-65
2022/09/10 00:21:59;;;;;;;7.18;6.47;;;22.50;99.90;;;;;;6264694;27;90527;-65
2022/09/10 00:25:01;;;;;;;8.77;7.25;;;22.50;99.90;;;;;;6260153;27;89189;-65
2022/09/10 00:28:03;;;;;;;6.85;6.13;;;22.50;99.90;;;;;;6274529;27;87946;-65
2022/09/10 00:31:05;;;;;;;7.82;6.95;;;22.50;99.90;;;;;;6280705;27;89046;-65
2022/09/10 00:34:09;;;;;;;7.70;6.90;;;22.50;99.90;;;;;;6269594;27;90158;-66
2022/09/10 00:37:11;;;;;;;8.50;6.97;;;22.50;99.90;;;;;;6270233;27;89231;-65
2022/09/10 00:40:14;;;;;;;8.30;7.00;;;22.50;99.90;;;;;;6268546;27;88254;-65
2022/09/10 00:43:19;;;;;;;7.40;6.47;;;22.50;99.90;;;;;;6268501;27;88323;-65
2022/09/10 00:46:28;;;;;;;8.05;6.90;;;22.50;99.90;;;;;;6278114;27;88215;-65
2022/09/10 00:49:35;;;;;;;6.90;6.13;;;22.50;99.90;;;;;;6261548;27;89080;-65
2022/09/10 00:52:38;;;;;;;7.32;6.55;;;22.50;99.90;;;;;;6278510;27;89933;-65
2022/09/10 00:55:43;;;;;;;6.82;6.10;;;22.50;99.90;;;;;;6268690;27;89340;-65
2022/09/10 00:58:48;;;;;;;8.43;6.93;;;22.50;99.90;;;;;;6275675;27;89331;-65
2022/09/10 01:01:50;;;;;;;7.95;6.78;;;22.50;99.90;;;;;;6277012;27;89053;-65
2022/09/10 01:04:56;;;;;;;6.75;6.05;;;22.50;99.90;;;;;;6269674;27;87994;-65
2022/09/10 01:07:58;;;;;;;7.15;6.45;;;22.50;99.90;;;;;;6275767;27;89457;-65
2022/09/10 01:11:13;;;;;;;7.45;6.72;;;22.50;99.90;;;;;;6262207;27;89001;-65
2022/09/10 01:14:30;;;;;;;7.97;7.18;;;22.50;99.90;;;;;;6258827;27;88424;-65
2022/09/10 01:17:44;;;;;;;7.93;7.00;;;22.50;99.90;;;;;;6264877;27;89482;-65
2022/09/10 01:21:00;;;;;;;7.93;6.63;;;22.40;99.90;;;;;;6264163;27;89238;-65
2022/09/10 01:24:23;;;;;;;6.93;6.32;;;22.50;99.90;;;;;;6268881;27;90029;-65
2022/09/10 01:27:40;;;;;;;8.10;7.30;;;22.50;99.90;;;;;;6257975;27;88094;-65
2022/09/10 01:30:45;;;;;;;9.15;7.47;;;22.50;99.90;;;;;;6263646;27;89088;-65
2022/09/10 01:33:52;;;;;;;8.00;7.18;;;22.50;99.90;;;;;;6262530;27;88214;-65
2022/09/10 01:36:58;;;;;;;8.30;7.30;;;22.40;99.90;;;;;;6273118;27;89197;-65
2022/09/10 01:40:04;;;;;;;8.20;7.10;;;22.40;99.90;;;;;;6267408;27;89169;-65
2022/09/10 01:43:09;;;;;;;9.23;8.18;;;22.40;99.90;;;;;;6274296;27;89028;-65
2022/09/10 01:46:25;;;;;;;8.57;7.68;;;22.40;99.90;;;;;;6265784;27;87986;-65
2022/09/10 01:49:38;;;;;;;9.27;8.23;;;22.40;99.90;;;;;;6276039;27;89053;-65
2022/09/10 01:52:50;;;;;;;9.23;8.32;;;22.40;99.90;;;;;;6280594;27;89306;-65
2022/09/10 01:55:59;;;;;;;9.15;8.23;;;22.40;99.90;;;;;;6268065;27;90351;-65
2022/09/10 01:59:08;;;;;;;10.68;8.73;;;22.40;99.90;;;;;;6278919;27;89186;-65
2022/09/10 02:02:16;;;;;;;10.57;8.70;;;22.40;99.90;;;;;;6254688;27;88919;-65
2022/09/10 02:05:22;;;;;;;9.05;8.15;;;22.40;99.90;;;;;;6278174;27;89020;-65
2022/09/10 02:08:29;;;;;;;9.10;8.20;;;22.40;99.90;;;;;;6275715;27;89210;-65
2022/09/10 02:11:43;;;;;;;8.88;7.97;;;22.40;99.90;;;;;;6280151;27;90176;-65
2022/09/10 02:14:49;;;;;;;9.45;8.45;;;22.40;99.90;;;;;;6278382;27;89402;-65
2022/09/10 02:17:52;;;;;;;9.40;8.40;;;22.40;99.90;;;;;;6278769;27;88309;-65
2022/09/10 02:20:56;;;;;;;9.85;8.70;;;22.40;99.90;;;;;;6265555;27;89030;-65
2022/09/10 02:24:04;;;;;;;9.45;8.48;;;22.40;99.90;;;;;;6256105;27;89350;-65
2022/09/10 02:27:06;;;;;;;9.25;8.27;;;22.40;99.90;;;;;;6256424;27;90291;-65
2022/09/10 02:30:11;;;;;;;9.40;8.50;;;22.40;99.90;;;;;;6256427;27;89033;-65
2022/09/10 02:33:15;;;;;;;9.88;8.88;;;22.40;99.90;;;;;;6263299;27;88886;-65
2022/09/10 02:36:17;;;;;;;9.82;8.82;;;22.40;99.90;;;;;;6272918;27;88255;-65
2022/09/10 02:39:19;;;;;;;9.30;8.30;;;22.40;99.90;;;;;;6265190;27;88952;-65
2022/09/10 02:42:21;;;;;;;10.05;9.05;;;22.40;99.90;;;;;;6268122;27;89039;-65
2022/09/10 02:45:24;;;;;;;10.25;9.25;;;22.40;99.90;;;;;;6268597;27;89184;-65
2022/09/10 02:48:29;;;;;;;10.77;9.68;;;22.40;99.90;;;;;;6270487;27;88308;-65
2022/09/10 02:51:32;;;;;;;9.48;8.50;;;22.40;99.90;;;;;;6281874;27;88731;-65
2022/09/10 02:54:33;;;;;;;9.82;8.82;;;22.40;99.90;;;;;;6267510;27;89104;-65
2022/09/10 02:57:35;;;;;;;9.13;8.23;;;22.40;99.90;;;;;;6276069;27;89960;-65
2022/09/10 03:00:39;;;;;;;10.40;9.40;;;22.30;99.90;;;;;;6271535;27;89410;-65
2022/09/10 03:03:41;;;;;;;10.23;9.23;;;22.40;99.90;;;;;;6260671;27;88108;-65
2022/09/10 03:06:48;;;;;;;9.20;8.30;;;22.30;99.90;;;;;;6272751;27;89048;-65
2022/09/10 03:09:50;;;;;;;9.18;8.27;;;22.40;99.90;;;;;;6276798;27;89359;-65
2022/09/10 03:12:52;;;;;;;9.25;8.35;;;22.40;99.90;;;;;;6267372;27;91741;-65
2022/09/10 03:15:57;;;;;;;10.25;9.25;;;22.30;99.90;;;;;;6274539;27;89075;-65
2022/09/10 03:18:59;;;;;;;9.95;8.95;;;22.40;99.90;;;;;;6270780;27;88647;-65
2022/09/10 03:22:01;;;;;;;9.15;8.25;;;22.40;99.90;;;;;;6272273;27;89102;-65
2022/09/10 03:25:03;;;;;;;10.10;9.10;;;22.40;99.90;;;;;;6264399;27;89005;-65
2022/09/10 03:28:05;;;;;;;10.10;9.10;;;22.40;99.90;;;;;;6254358;27;90017;-65
2022/09/10 03:31:09;;;;;;;9.93;9.00;;;22.30;99.90;;;;;;6255501;27;89179;-65
2022/09/10 03:34:13;;;;;;;9.55;8.65;;;22.30;99.90;;;;;;6266276;27;89308;-65
2022/09/10 03:37:15;;;;;;;11.10;9.68;;;22.40;99.90;;;;;;6276874;27;89087;-65
2022/09/10 03:40:17;;;;;;;9.63;8.63;;;22.30;99.90;;;;;;6267528;27;88067;-65
2022/09/10 03:43:21;;;;;;;9.95;8.95;;;22.30;99.90;;;;;;6255491;27;89268;-65
2022/09/10 03:46:24;;;;;;;9.73;8.77;;;22.30;99.90;;;;;;6278545;27;89188;-65
2022/09/10 03:49:27;;;;;;;9.77;8.77;;;22.30;99.90;;;;;;6279319;27;88667;-65
2022/09/10 03:52:28;;;;;;;9.77;8.82;;;22.30;99.90;;;;;;6259842;27;89036;-65
2022/09/10 03:55:30;;;;;;;9.30;8.40;;;22.30;99.90;;;;;;6264262;27;89113;-65
2022/09/10 03:58:32;;;;;;;9.63;8.73;;;22.30;99.90;;;;;;6277940;27;90138;-65
2022/09/10 04:01:36;;;;;;;10.15;8.90;;;22.30;99.90;;;;;;6277196;27;89082;-65
2022/09/10 04:04:38;;;;;;;9.38;8.48;;;22.30;99.90;;;;;;6277443;27;89171;-65
2022/09/10 04:07:41;;;;;;;9.90;8.90;;;22.30;99.90;;;;;;6266603;27;89474;-65
2022/09/10 04:10:44;;;;;;;9.73;8.73;;;22.30;99.90;;;;;;6277091;27;89053;-65
2022/09/10 04:13:47;;;;;;;9.43;8.52;;;22.30;99.90;;;;;;6268779;27;89500;-66
2022/09/10 04:16:51;;;;;;;9.70;8.70;;;22.30;99.90;;;;;;6265591;27;87961;-65
2022/09/10 04:19:53;;;;;;;9.50;8.50;;;22.30;99.90;;;;;;6283289;27;88701;-65
2022/09/10 04:22:56;;;;;;;9.73;8.73;;;22.30;99.90;;;;;;6261911;27;89093;-65
2022/09/10 04:25:58;;;;;;;9.77;8.77;;;22.30;99.90;;;;;;6271650;27;89067;-66
2022/09/10 04:29:00;;;;;;;8.88;8.00;;;22.30;99.90;;;;;;6265246;27;90021;-65
2022/09/10 04:32:04;;;;;;;9.13;8.23;;;22.30;99.90;;;;;;6264568;27;89136;-65
2022/09/10 04:35:07;;;;;;;10.02;8.60;;;22.30;99.90;;;;;;6269880;27;89192;-65
2022/09/10 04:38:09;;;;;;;9.57;8.60;;;22.30;99.90;;;;;;6259623;27;89079;-65
2022/09/10 04:41:14;;;;;;;9.65;8.65;;;22.30;99.90;;;;;;6277521;27;89052;-66
2022/09/10 04:44:19;;;;;;;9.68;8.68;;;22.30;99.90;;;;;;6279844;27;89023;-66
2022/09/10 04:47:22;;;;;;;9.05;8.15;;;22.30;99.90;;;;;;6264941;27;87876;-65
2022/09/10 04:50:24;;;;;;;9.65;8.65;;;22.30;99.90;;;;;;6259833;27;88379;-65
2022/09/10 04:53:26;;;;;;;9.10;8.20;;;22.20;99.90;;;;;;6277823;27;89103;-65
2022/09/10 04:56:29;;;;;;;9.57;8.57;;;22.30;99.90;;;;;;6274028;27;89006;-65
2022/09/10 04:59:31;;;;;;;9.80;8.80;;;22.30;99.90;;;;;;6273404;27;90182;-65
2022/09/10 05:02:36;;;;;;;9.68;8.68;;;22.30;99.90;;;;;;6280920;27;87969;-65
2022/09/10 05:05:38;;;;;;;9.57;8.60;;;22.30;99.90;;;;;;6281042;27;89237;-65
2022/09/10 05:08:40;;;;;;;9.18;8.27;;;22.30;99.90;;;;;;6270051;27;88998;-65
2022/09/10 05:11:43;;;;;;;9.10;8.20;;;22.30;99.90;;;;;;6277237;27;88980;-65
2022/09/10 05:14:45;;;;;;;9.27;8.40;;;22.30;99.90;;;;;;6273632;27;89692;-65
2022/09/10 05:17:48;;;;;;;9.27;8.38;;;22.30;99.90;;;;;;6260224;27;89034;-65
2022/09/10 05:20:50;;;;;;;9.05;8.15;;;22.30;99.90;;;;;;6267368;27;88269;-65
2022/09/10 05:23:52;;;;;;;8.95;8.00;;;22.30;99.90;;;;;;6272578;27;89153;-65
2022/09/10 05:26:55;;;;;;;9.27;8.38;;;22.30;99.90;;;;;;6268359;27;89083;-65
2022/09/10 05:29:58;;;;;;;8.93;8.02;;;22.30;99.90;;;;;;6259759;27;90123;-65
2022/09/10 05:33:01;;;;;;;8.95;8.05;;;22.30;99.90;;;;;;6270683;27;89113;-65
2022/09/10 05:36:04;;;;;;;8.93;8.02;;;22.30;99.90;;;;;;6267227;27;89126;-65
2022/09/10 05:39:06;;;;;;;8.25;7.45;;;22.40;99.90;;;;;;6276544;27;89096;-65
2022/09/10 05:42:08;;;;;;;8.35;7.55;;;22.30;99.90;;;;;;6259766;27;89200;-65
2022/09/10 05:45:10;;;;;;;8.73;7.75;;;22.40;99.90;;;;;;6269397;27;89088;-65
2022/09/10 05:48:14;;;;;;;8.57;7.72;;;22.40;99.90;;;;;;6277304;27;87947;-65
2022/09/10 05:51:17;;;;;;;8.00;7.20;;;22.40;99.90;;;;;;6257451;27;87261;-65
2022/09/10 05:54:19;;;;;;;8.50;7.70;;;22.40;99.90;;;;;;6265913;27;89485;-65
2022/09/10 05:57:21;;;;;;;8.57;7.78;;;22.40;99.90;;;;;;6274753;27;89324;-65
2022/09/10 06:00:23;;;;;;;8.52;7.72;;;22.40;99.90;;;;;;6262004;27;90061;-65
2022/09/10 06:03:27;;;;;;;8.40;7.60;;;22.40;99.90;;;;;;6270607;27;88942;-65
2022/09/10 06:06:29;;;;;;;8.13;7.32;;;22.30;99.90;;;;;;6265744;27;88300;-65
2022/09/10 06:09:31;;;;;;;8.07;7.28;;;22.30;99.90;;;;;;6277505;27;89385;-66
2022/09/10 06:12:34;;;;;;;7.85;7.07;;;22.40;99.90;;;;;;6271056;27;89146;-65
2022/09/10 06:15:40;;;;;;;8.30;7.50;;;22.30;99.90;;;;;;6261215;27;89126;-64
2022/09/10 06:18:44;;;;;;;8.40;7.60;;;22.30;99.90;;;;;;6267865;27;88989;-66
2022/09/10 06:21:46;;;;;;;7.97;7.28;;;22.40;99.90;;;;;;6274579;27;88321;-67
2022/09/10 06:24:48;;;;;;;7.93;7.13;;;22.40;99.90;;;;;;6268500;27;89050;-67
2022/09/10 06:27:50;;;;;;;8.43;7.63;;;22.40;99.90;;;;;;6261028;27;89128;-66
2022/09/10 06:30:52;;;;;;;8.00;7.28;;;22.40;99.90;;;;;;6260091;27;90080;-68
2022/09/10 06:33:56;;;;;;;7.60;6.90;;;22.40;99.90;;;;;;6257139;27;88260;-68
2022/09/10 06:36:58;;;;;;;7.20;6.50;;;22.30;99.90;;;;;;6255925;27;89305;-68
2022/09/10 06:40:00;;;;;;;7.20;6.50;;;22.40;99.90;;;;;;6267487;27;89153;-68
2022/09/10 06:43:02;;;;;;;8.02;6.75;;;22.40;99.90;;;;;;6265424;27;88781;-68
2022/09/10 06:46:09;;;;;;;6.57;5.97;;;22.40;99.90;;;;;;6267917;27;89366;-68
2022/09/10 06:49:12;;;;;;;6.82;6.10;;;22.40;99.90;;;;;;6275266;27;89081;-68
2022/09/10 06:52:14;;;;;;;5.88;5.35;;;22.40;99.90;;;;;;6267982;27;88304;-68
2022/09/10 06:55:17;;;;;;;6.85;5.47;;;22.30;99.90;;;;;;6258886;27;89265;-67
2022/09/10 06:58:20;;;;;;;6.78;4.93;;;22.40;99.90;;;;;;6271481;27;90352;-68
2022/09/10 07:01:24;;;;;;;4.80;4.30;;;22.40;99.90;;;;;;6265151;27;91747;-67
2022/09/10 07:04:27;;;;;;;4.70;4.20;;;22.40;99.90;;;;;;6267003;27;89730;-67
2022/09/10 07:07:30;;;;;;;5.13;4.40;;;22.30;99.90;;;;;;6261121;27;89007;-67
2022/09/10 07:10:32;;;;;;;4.38;3.92;;;22.40;99.90;;;;;;6271300;27;89658;-68
2022/09/10 07:13:35;;;;;;;4.90;3.78;;;22.40;99.90;;;;;;6269480;27;88315;-67
2022/09/10 07:16:40;;;;;;;8.13;4.13;;;22.30;99.90;;;;;;6278184;27;89148;-67
2022/09/10 07:19:43;;;;;;;5.70;4.03;;;22.30;99.90;;;;;;6270079;27;88629;-67
2022/09/10 07:22:46;;;;;;;4.82;3.40;;;22.40;99.90;;;;;;6272742;27;88342;-67
2022/09/10 07:25:49;;;;;;;4.05;3.60;;;22.40;99.90;;;;;;6268930;27;89416;-67
2022/09/10 07:28:52;;;;;;;4.32;3.03;;;22.40;99.90;;;;;;6266578;27;89495;-67
2022/09/10 07:31:54;;;;;;;4.18;3.00;;;22.30;99.90;;;;;;6273044;27;90208;-67
2022/09/10 07:34:57;;;;;;;4.40;3.40;;;22.40;99.90;;;;;;6271563;27;89147;-67
2022/09/10 07:37:59;;;;;;;4.68;3.13;;;22.40;99.90;;;;;;6271620;27;89380;-67
2022/09/10 07:41:01;;;;;;;4.32;2.92;;;22.40;99.90;;;;;;6278408;27;88964;-67
2022/09/10 07:44:04;;;;;;;2.85;2.53;;;22.40;99.90;;;;;;6280529;27;89442;-67
2022/09/10 07:47:06;;;;;;;4.22;2.65;;;22.40;99.90;;;;;;6273655;27;89067;-67
2022/09/10 07:50:10;;;;;;;5.25;2.90;;;22.40;99.90;;;;;;6271760;27;89401;-67
2022/09/10 07:53:12;;;;;;;3.30;2.67;;;22.30;99.90;;;;;;6266410;27;88325;-67
2022/09/10 07:56:14;;;;;;;3.25;2.90;;;22.30;99.90;;;;;;6264553;27;88954;-67
2022/09/10 07:59:16;;;;;;;3.00;2.67;;;22.30;99.90;;;;;;6264420;27;88989;-67
2022/09/10 08:02:19;;;;;;;2.95;2.58;;;22.30;99.90;;;;;;6269275;27;91465;-67
2022/09/10 08:05:23;;;;;;;3.55;2.20;;;22.40;99.90;;;;;;6282938;27;89350;-68
2022/09/10 08:08:30;;;;;;;2.47;2.28;;;22.40;99.90;;;;;;6267347;27;88025;-67
2022/09/10 08:11:33;;;;;;;2.78;1.88;;;22.30;99.90;;;;;;6269880;27;88814;-67
2022/09/10 08:14:36;;;;;;;3.78;2.03;;;22.40;99.90;;;;;;6279090;27;89247;-67
2022/09/10 08:17:38;;;;;;;2.53;1.80;;;22.40;99.90;;;;;;6266048;27;87940;-67
2022/09/10 08:20:42;;;;;;;2.92;1.85;;;22.30;99.90;;;;;;6277904;27;89118;-68
2022/09/10 08:23:49;;;;;;;3.13;1.50;;;22.30;99.90;;;;;;6277401;27;88347;-67
2022/09/10 08:26:51;;;;;;;2.30;1.63;;;22.30;99.90;;;;;;6279984;27;88980;-67
2022/09/10 08:29:55;;;;;;;1.73;1.60;;;22.30;99.90;;;;;;6270880;27;89107;-66
2022/09/10 08:32:57;;;;;;;1.75;1.50;;;22.30;99.90;;;;;;6280442;27;90395;-67
2022/09/10 08:36:01;;;;;;;1.48;1.38;;;22.30;99.90;;;;;;6267479;27;91021;-67
2022/09/10 08:39:02;;;;;;;1.55;1.45;;;22.30;99.90;;;;;;6280157;27;89792;-67
2022/09/10 08:42:13;;;;;;;1.75;1.58;;;22.30;99.90;;;;;;6261132;27;89362;-67
2022/09/10 08:45:21;;;;;;;2.13;1.60;;;22.30;99.90;;;;;;6265388;27;89375;-67
2022/09/10 08:48:25;;;;;;;1.60;1.50;;;22.20;99.90;;;;;;6277513;27;89300;-67
2022/09/10 08:51:34;;;;;;;2.92;1.60;;;22.20;99.90;;;;;;6267432;27;87989;-67
2022/09/10 08:54:42;;;;;;;2.50;1.42;;;22.30;99.90;;;;;;6275164;27;88316;-67
2022/09/10 08:57:49;;;;;;;1.90;1.33;;;22.20;99.90;;;;;;6275601;27;89105;-67
2022/09/10 09:00:55;;;;;;;1.88;1.40;;;22.20;99.90;;;;;;6269938;27;90062;-67
2022/09/10 09:03:58;;;;;;;1.83;1.30;;;22.20;99.90;;;;;;6272220;27;88895;-67
2022/09/10 09:07:09;;;;;;;2.38;1.60;;;22.20;99.90;;;;;;6260031;27;90992;-67
2022/09/10 09:10:30;;;;;;;2.05;1.40;;;22.20;99.90;;;;;;6281461;27;89014;-67
2022/09/10 09:13:52;;;;;;;1.77;1.30;;;22.20;99.90;;;;;;6269500;27;89435;-67
2022/09/10 09:17:12;;;;;;;1.65;1.40;;;22.20;99.90;;;;;;6256975;27;89293;-67
2022/09/10 09:20:17;;;;;;;1.67;1.33;;;22.20;99.90;;;;;;6269597;27;88010;-67
2022/09/10 09:23:24;;;;;;;1.33;1.23;;;22.20;99.90;;;;;;6269228;27;89287;-67
2022/09/10 09:26:34;;;;;;;1.42;1.20;;;22.20;99.90;;;;;;6269127;27;88680;-67
2022/09/10 09:29:42;;;;;;;1.42;1.27;;;22.20;99.90;;;;;;6269736;27;89173;-67
2022/09/10 09:32:46;;;;;;;1.35;1.10;;;22.20;99.90;;;;;;6272820;27;87918;-67
2022/09/10 09:35:53;;;;;;;1.48;1.20;;;22.10;99.90;;;;;;6266800;27;89964;-67
2022/09/10 09:38:56;;;;;;;2.65;1.65;;;22.20;99.90;;;;;;6266355;27;88727;-67
2022/09/10 09:42:06;;;;;;;1.38;1.05;;;22.10;99.90;;;;;;6270819;27;89049;-67
2022/09/10 09:45:22;;;;;;;1.27;1.10;;;22.20;99.90;;;;;;6270633;27;88862;-67
2022/09/10 09:48:25;;;;;;;1.33;1.23;;;22.20;99.90;;;;;;6268919;27;89256;-66
2022/09/10 09:51:34;;;;;;;1.42;1.20;;;22.10;99.90;;;;;;6265154;27;89148;-67
2022/09/10 09:54:42;;;;;;;1.52;1.40;;;22.10;99.90;;;;;;6259413;27;89074;-67
2022/09/10 09:57:46;;;;;;;1.50;1.10;;;22.10;99.90;;;;;;6267933;27;88350;-67
2022/09/10 10:00:49;;;;;;;1.40;1.30;;;22.20;99.90;;;;;;6276258;27;89122;-67
2022/09/10 10:03:57;;;;;;;1.25;1.00;;;22.10;99.90;;;;;;6270495;27;89274;-67
2022/09/10 10:07:01;;;;;;;1.58;1.20;;;22.10;99.90;;;;;;6269430;27;89958;-67
2022/09/10 10:10:07;;;;;;;3.33;1.65;;;22.10;99.90;;;;;;6276153;27;88082;-67
2022/09/10 10:13:21;;;;;;;2.13;0.98;;;22.10;99.90;;;;;;6280008;27;88638;-67
2022/09/10 10:16:25;;;;;;;1.23;0.95;;;22.10;99.90;;;;;;6269749;27;88918;-67
2022/09/10 10:19:33;;;;;;;1.17;1.08;;;22.10;99.90;;;;;;6272615;27;89120;-67
2022/09/10 10:22:36;;;;;;;1.83;1.13;;;22.20;99.90;;;;;;6258539;27;89605;-67
2022/09/10 10:25:40;;;;;;;4.28;1.75;;;22.10;99.90;;;;;;6273138;27;90663;-67
2022/09/10 10:28:46;;;;;;;2.33;1.40;;;22.10;99.90;;;;;;6268887;27;88111;-66
2022/09/10 10:31:50;;;;;;;1.40;1.30;;;22.20;99.90;;;;;;6262082;27;88949;-67
2022/09/10 10:35:00;;;;;;;2.45;1.33;;;22.10;99.90;;;;;;6266424;27;89025;-67
2022/09/10 10:38:39;;;;;;;1.85;1.35;;;22.10;99.90;;;;;;6269039;27;90094;-67
2022/09/10 10:41:59;;;;;;;2.30;1.30;;;22.10;99.90;;;;;;6259093;27;89466;-66
2022/09/10 10:45:29;;;;;;;2.22;1.38;;;22.10;99.90;;;;;;6269362;27;89236;-67
2022/09/10 10:48:46;;;;;;;1.60;1.27;;;22.20;99.90;;;;;;6265294;27;89133;-67
2022/09/10 10:51:56;;;;;;;1.77;1.30;;;22.20;99.90;;;;;;6272646;27;88968;-67
2022/09/10 10:55:11;;;;;;;1.45;1.30;;;22.20;99.90;;;;;;6260726;27;88949;-67
2022/09/10 10:58:29;;;;;;;1.80;1.45;;;22.10;99.90;;;;;;6268249;27;89080;-67
2022/09/10 11:01:35;;;;;;;2.35;1.35;;;22.20;99.90;;;;;;6271829;27;87574;-67
2022/09/10 11:04:43;;;;;;;1.40;1.30;;;22.20;99.90;;;;;;6264342;27;89093;-67
2022/09/10 11:07:46;;;;;;;1.85;1.40;;;22.20;99.90;;;;;;6270607;27;89014;-67
2022/09/10 11:10:53;;;;;;;1.98;1.27;;;22.20;99.90;;;;;;6266952;27;88956;-67
2022/09/10 11:14:00;;;;;;;1.90;1.27;;;22.20;99.90;;;;;;6264453;27;89221;-67
2022/09/10 11:17:05;;;;;;;1.42;1.33;;;22.20;99.90;;;;;;6265015;27;87982;-67
2022/09/10 11:20:14;;;;;;;1.92;1.40;;;22.20;99.90;;;;;;6273247;27;87988;-67
2022/09/10 11:23:25;;;;;;;1.55;1.20;;;22.10;99.90;;;;;;6269201;27;89097;-67
2022/09/10 11:26:35;;;;;;;4.65;2.22;;;22.20;99.90;;;;;;6270704;27;89115;-66
2022/09/10 11:29:42;;;;;;;2.38;1.40;;;22.20;99.90;;;;;;6266096;27;89008;-65
2022/09/10 11:32:49;;;;;;;1.85;1.40;;;22.20;99.90;;;;;;6280136;27;88324;-66
2022/09/10 11:35:58;;;;;;;2.60;1.33;;;22.20;99.90;;;;;;6268850;27;89403;-66
2022/09/10 11:39:08;;;;;;;3.20;1.60;;;22.30;99.90;;;;;;6276263;27;89360;-66
2022/09/10 11:42:17;;;;;;;3.38;1.45;;;22.20;99.90;;;;;;6265932;27;89939;-65
2022/09/10 11:45:27;;;;;;;2.90;1.58;;;22.30;99.90;;;;;;6269920;27;88025;-67
2022/09/10 11:48:36;;;;;;;1.75;1.30;;;22.30;99.90;;;;;;6272113;27;89111;-66
2022/09/10 11:51:40;;;;;;;3.53;1.88;;;22.30;99.90;;;;;;6262936;27;89363;-66
2022/09/10 11:54:45;;;;;;;6.25;2.60;;;22.30;99.90;;;;;;6264419;27;87926;-66
2022/09/10 11:57:56;;;;;;;10.32;3.53;;;22.30;99.90;;;;;;6265193;27;89064;-66
2022/09/10 12:01:05;;;;;;;13.88;4.40;;;22.30;99.90;;;;;;6272174;27;89124;-66
2022/09/10 12:04:36;;;;;;;13.57;4.70;;;22.30;99.90;;;;;;6261151;27;88339;-66
2022/09/10 12:07:50;;;;;;;13.80;4.30;;;22.30;99.90;;;;;;6266623;27;87990;-66
2022/09/10 12:11:06;;;;;;;17.75;5.18;;;22.30;99.90;;;;;;6273246;27;89184;-66
2022/09/10 12:14:15;;;;;;;13.70;3.92;;;22.30;99.90;;;;;;6279323;27;90346;-66
2022/09/10 12:17:24;;;;;;;10.32;3.53;;;22.30;99.90;;;;;;6282632;27;89051;-66
2022/09/10 12:20:30;;;;;;;9.77;3.30;;;22.40;99.90;;;;;;6276046;27;89146;-66
2022/09/10 12:23:36;;;;;;;11.52;3.50;;;22.30;99.90;;;;;;6281206;27;87975;-66
2022/09/10 12:26:43;;;;;;;14.32;4.05;;;22.30;99.90;;;;;;6274730;27;87966;-66
2022/09/10 12:29:47;;;;;;;22.77;5.78;;;22.30;99.90;;;;;;6270064;27;89142;-66
2022/09/10 12:32:51;;;;;;;29.25;8.27;;;22.30;99.90;;;;;;6275204;27;89290;-66
2022/09/10 12:35:53;;;;;;;34.60;9.98;;;22.30;99.90;;;;;;6281336;27;88363;-66
2022/09/10 12:39:11;;;;;;;37.03;10.55;;;22.30;99.90;;;;;;6280238;27;87952;-66
2022/09/10 12:42:31;;;;;;;26.30;8.85;;;22.30;99.90;;;;;;6268679;27;89490;-66
2022/09/10 12:46:03;;;;;;;23.08;7.45;;;22.30;99.90;;;;;;6270323;27;90007;-66
2022/09/10 12:49:12;;;;;;;22.23;6.95;;;22.30;99.90;;;;;;6270956;27;88309;-66
2022/09/10 12:52:22;;;;;;;17.60;5.80;;;22.30;99.90;;;;;;6261814;27;89449;-66
2022/09/10 12:55:40;;;;;;;14.40;5.18;;;22.30;99.90;;;;;;6269508;27;89033;-66
2022/09/10 12:58:57;;;;;;;14.88;5.18;;;22.40;99.90;;;;;;6264203;27;88107;-66
2022/09/10 13:02:00;;;;;;;13.65;4.97;;;22.40;99.90;;;;;;6258846;27;89115;-66
2022/09/10 13:05:06;;;;;;;12.63;4.53;;;22.30;99.90;;;;;;6270587;27;89082;-66
2022/09/10 13:08:17;;;;;;;15.75;4.95;;;22.40;99.90;;;;;;6262906;27;88293;-66
2022/09/10 13:11:22;;;;;;;16.98;5.30;;;22.40;99.90;;;;;;6277310;27;89220;-66
2022/09/10 13:14:29;;;;;;;12.18;4.50;;;22.40;99.90;;;;;;6277739;27;89088;-66
2022/09/10 13:17:38;;;;;;;12.77;4.20;;;22.50;99.90;;;;;;6268182;27;90020;-66
2022/09/10 13:20:42;;;;;;;10.20;3.45;;;22.60;99.90;;;;;;6269785;27;88972;-66
2022/09/10 13:23:48;;;;;;;10.15;3.58;;;22.60;99.90;;;;;;6267772;27;89061;-66
2022/09/10 13:26:52;;;;;;;11.30;3.38;;;22.70;99.90;;;;;;6261648;27;89044;-66
2022/09/10 13:30:09;;;;;;;8.70;3.40;;;22.70;99.90;;;;;;6268799;27;87698;-66
2022/09/10 13:33:13;;;;;;;7.85;3.40;;;22.80;99.90;;;;;;6264690;27;88189;-66
2022/09/10 13:36:28;;;;;;;8.50;3.30;;;22.70;99.90;;;;;;6280132;27;89064;-66
2022/09/10 13:40:09;;;;;;;9.50;2.95;;;22.80;99.90;;;;;;6272256;27;88269;-66
2022/09/10 13:43:23;;;;;;;8.52;3.00;;;22.70;99.90;;;;;;6235279;27;88002;-66
2022/09/10 13:46:34;;;;;;;8.02;3.03;;;22.70;99.90;;;;;;6262736;27;89059;-66
2022/09/10 13:49:45;;;;;;;6.38;2.70;;;22.70;99.90;;;;;;6264428;27;90065;-66
2022/09/10 13:52:51;;;;;;;5.32;2.28;;;22.70;99.90;;;;;;6261866;27;89409;-66
2022/09/10 13:55:58;;;;;;;7.68;2.67;;;22.70;99.90;;;;;;6271036;27;89098;-66
2022/09/10 13:59:02;;;;;;;5.50;2.33;;;22.70;99.90;;;;;;6266813;27;88991;-67
2022/09/10 14:02:04;;;;;;;4.57;2.28;;;22.70;99.90;;;;;;6256864;27;89053;-66
2022/09/10 14:05:22;;;;;;;4.70;2.25;;;22.70;99.90;;;;;;6257458;27;89020;-66
2022/09/10 14:08:29;;;;;;;4.68;2.38;;;22.60;99.90;;;;;;6268976;27;88999;-66
2022/09/10 14:11:35;;;;;;;4.10;2.28;;;22.60;99.90;;;;;;6273367;27;88285;-66
2022/09/10 14:14:41;;;;;;;4.57;2.30;;;22.60;99.90;;;;;;6266720;27;89036;-66
2022/09/10 14:17:46;;;;;;;3.92;1.90;;;22.60;99.90;;;;;;6266997;27;89522;-66
2022/09/10 14:20:48;;;;;;;3.97;2.15;;;22.60;99.90;;;;;;6267262;27;90105;-66
2022/09/10 14:23:52;;;;;;;5.45;2.10;;;22.60;99.90;;;;;;6273700;27;87950;-66
2022/09/10 14:27:15;;;;;;;5.50;2.10;;;22.50;99.90;;;;;;6273050;27;89303;-66
2022/09/10 14:30:24;;;;;;;5.35;2.20;;;22.60;99.90;;;;;;6261936;27;88748;-66
2022/09/10 14:33:32;;;;;;;5.47;2.53;;;22.50;99.90;;;;;;6274414;27;89417;-66
2022/09/10 14:36:34;;;;;;;3.97;1.95;;;22.50;99.90;;;;;;6255667;27;89054;-66
2022/09/10 14:39:44;;;;;;;6.50;2.22;;;22.50;99.90;;;;;;6256193;27;89096;-66
2022/09/10 14:42:47;;;;;;;3.78;2.17;;;22.50;99.90;;;;;;6269076;27;88328;-66
2022/09/10 14:45:49;;;;;;;4.93;2.13;;;22.50;99.90;;;;;;6258912;27;89015;-66
2022/09/10 14:49:04;;;;;;;4.25;1.92;;;22.50;99.90;;;;;;6267267;27;89236;-66
2022/09/10 14:52:06;;;;;;;3.42;1.92;;;22.50;99.90;;;;;;6256955;27;89925;-66
2022/09/10 14:55:10;;;;;;;3.40;1.92;;;22.50;99.90;;;;;;6271402;27;89552;-66
2022/09/10 14:58:13;;;;;;;3.58;2.10;;;22.50;99.90;;;;;;6259508;27;89075;-66
2022/09/10 15:07:31;;;;;;;4.90;2.13;;;22.50;99.90;;;;;;6212266;28;89871;-66
2022/09/10 15:10:34;;;;;;;3.53;1.98;;;22.50;99.90;;;;;;6197998;28;88065;-65
2022/09/10 15:13:41;;;;;;;3.03;2.13;;;22.50;99.90;;;;;;6202410;28;88725;-66
2022/09/10 15:16:43;;;;;;;3.67;1.83;;;22.50;99.90;;;;;;6202314;28;89072;-65
2022/09/10 15:19:47;;;;;;;3.75;1.88;;;22.50;99.90;;;;;;6195294;28;89028;-65
2022/09/10 15:22:49;;;;;;;3.92;2.00;;;22.50;99.90;;;;;;6202369;28;89061;-67
2022/09/10 15:25:54;;;;;;;3.13;1.98;;;22.50;99.90;;;;;;6207662;28;89435;-66
2022/09/10 15:28:56;;;;;;;4.20;2.42;;;22.50;99.90;;;;;;6201938;28;89215;-66
2022/09/10 15:31:58;;;;;;;4.03;2.30;;;22.50;99.90;;;;;;6201094;28;89259;-66
2022/09/10 15:35:00;;;;;;;3.47;2.10;;;22.50;99.90;;;;;;6201910;28;88045;-66
2022/09/10 15:38:02;;;;;;;4.38;2.30;;;22.50;99.90;;;;;;6195557;28;87901;-66
2022/09/10 15:41:11;;;;;;;4.22;2.00;;;22.50;99.90;;;;;;6199821;28;89043;-66
2022/09/10 15:44:13;;;;;;;3.30;1.98;;;22.50;99.90;;;;;;6190047;28;88411;-66
2022/09/10 15:47:16;;;;;;;2.75;1.83;;;22.50;99.90;;;;;;6200384;28;89075;-66
2022/09/10 15:50:19;;;;;;;4.80;2.15;;;22.50;99.90;;;;;;6205363;28;89088;-66
2022/09/10 15:53:22;;;;;;;9.15;2.30;;;22.50;99.90;;;;;;6204280;28;89947;-66
2022/09/10 15:56:27;;;;;;;7.00;2.47;;;22.50;99.90;;;;;;6193628;28;88670;-66
2022/09/10 15:59:29;;;;;;;9.75;2.50;;;22.50;99.90;;;;;;6206615;28;88045;-65
2022/09/10 16:02:32;;;;;;;8.82;2.20;;;22.50;99.90;;;;;;6204886;28;87735;-67
2022/09/10 16:05:37;;;;;;;9.35;2.42;;;22.50;99.90;;;;;;6203234;28;89568;-67
2022/09/10 16:08:40;;;;;;;6.55;2.05;;;22.60;99.90;;;;;;6211521;28;88952;-66
2022/09/10 16:11:45;;;;;;;8.35;2.40;;;22.60;99.90;;;;;;6228517;28;88058;-65